createdAt,value
2018-06-29T00:00:31.027Z,15.19
2018-06-29T00:03:00.120Z,15.12
2018-06-29T00:05:29.207Z,14.82
2018-06-29T00:07:58.851Z,14.94
2018-06-29T00:10:28.184Z,15.02
2018-06-29T00:12:57.523Z,15.04
2018-06-29T00:15:26.617Z,14.77
2018-06-29T00:17:55.971Z,15.01
2018-06-29T00:20:25.324Z,15.06
2018-06-29T00:22:54.479Z,15.03
2018-06-29T00:25:23.826Z,15.06
2018-06-29T00:27:52.923Z,15.06
2018-06-29T00:30:22.012Z,15.07
2018-06-29T00:32:51.356Z,15.02
2018-06-29T00:35:20.698Z,15.07
2018-06-29T00:37:50.026Z,15.09
2018-06-29T00:40:19.376Z,15.05
2018-06-29T00:42:48.712Z,15.06
2018-06-29T00:45:17.818Z,15.19
2018-06-29T00:47:46.901Z,14.47
2018-06-29T00:50:16.256Z,15.19
2018-06-29T00:52:45.592Z,15.17
2018-06-29T00:55:14.997Z,15.07
2018-06-29T00:57:44.284Z,15.27
2018-06-29T01:00:13.628Z,15.16
2018-06-29T01:02:43.013Z,15.30
2018-06-29T01:05:12.157Z,15.27
2018-06-29T01:07:41.540Z,15.30
2018-06-29T01:10:10.920Z,15.24
2018-06-29T01:12:40.039Z,15.23
2018-06-29T01:15:09.433Z,15.31
2018-06-29T01:17:38.828Z,15.31
2018-06-29T01:20:09.095Z,15.36
2018-06-29T01:22:38.501Z,15.49
2018-06-29T01:25:08.099Z,15.63
2018-06-29T01:27:37.478Z,15.53
2018-06-29T01:30:06.873Z,15.44
2018-06-29T01:32:36.257Z,15.45
2018-06-29T01:35:05.653Z,15.37
2018-06-29T01:37:34.785Z,15.35
2018-06-29T01:40:04.481Z,15.31
2018-06-29T01:42:33.853Z,15.34
2018-06-29T01:45:02.981Z,15.07
2018-06-29T01:47:32.367Z,15.40
2018-06-29T01:50:01.838Z,15.34
2018-06-29T01:52:31.272Z,15.36
2018-06-29T01:55:00.600Z,15.34
2018-06-29T01:57:29.974Z,15.27
2018-06-29T01:59:59.357Z,15.40
2018-06-29T02:02:28.742Z,15.34
2018-06-29T02:04:58.129Z,15.25
2018-06-29T02:07:27.505Z,15.21
2018-06-29T02:09:56.909Z,15.22
2018-06-29T02:12:26.275Z,15.16
2018-06-29T02:14:55.657Z,15.18
2018-06-29T02:17:25.053Z,15.16
2018-06-29T02:19:54.435Z,15.15
2018-06-29T02:22:23.821Z,15.28
2018-06-29T02:24:53.203Z,15.24
2018-06-29T02:27:22.593Z,15.24
2018-06-29T02:29:51.988Z,15.25
2018-06-29T02:32:21.342Z,15.16
2018-06-29T02:34:50.738Z,15.25
2018-06-29T02:37:20.120Z,15.21
2018-06-29T02:39:49.490Z,15.14
2018-06-29T02:42:18.621Z,14.55
2018-06-29T02:44:48.008Z,15.28
2018-06-29T02:47:17.395Z,15.28
2018-06-29T02:49:46.773Z,15.36
2018-06-29T02:52:16.172Z,15.28
2018-06-29T02:54:45.550Z,15.29
2018-06-29T02:57:14.934Z,15.33
2018-06-29T02:59:44.291Z,15.33
2018-06-29T03:02:13.640Z,15.25
2018-06-29T03:04:43.001Z,15.33
2018-06-29T03:07:12.113Z,15.22
2018-06-29T03:09:41.521Z,15.22
2018-06-29T03:12:10.928Z,15.27
2018-06-29T03:14:40.281Z,15.16
2018-06-29T03:17:09.672Z,15.14
2018-06-29T03:19:38.976Z,15.18
2018-06-29T03:22:08.995Z,15.17
2018-06-29T03:24:38.280Z,15.23
2018-06-29T03:27:07.605Z,15.21
2018-06-29T03:29:36.908Z,14.94
2018-06-29T03:32:06.209Z,15.18
2018-06-29T03:34:35.505Z,14.65
2018-06-29T03:37:04.838Z,15.30
2018-06-29T03:39:34.133Z,15.28
2018-06-29T03:42:03.447Z,15.20
2018-06-29T03:44:32.751Z,15.16
2018-06-29T03:47:02.092Z,15.24
2018-06-29T03:49:31.412Z,15.12
2018-06-29T03:52:00.719Z,15.09
2018-06-29T03:54:29.785Z,15.15
2018-06-29T03:56:59.091Z,15.05
2018-06-29T03:59:28.388Z,15.12
2018-06-29T04:01:57.692Z,15.12
2018-06-29T04:04:26.993Z,15.18
2018-06-29T04:06:56.300Z,15.12
2018-06-29T04:09:25.601Z,15.15
2018-06-29T04:11:54.909Z,15.06
2018-06-29T04:14:23.979Z,15.25
2018-06-29T04:16:53.290Z,15.18
2018-06-29T04:19:22.693Z,15.07
2018-06-29T04:21:52.064Z,15.09
2018-06-29T04:24:21.429Z,14.64
2018-06-29T04:26:50.793Z,15.34
2018-06-29T04:29:20.196Z,15.39
2018-06-29T04:31:49.561Z,15.18
2018-06-29T04:34:18.936Z,15.36
2018-06-29T04:36:48.325Z,15.43
2018-06-29T04:39:17.710Z,15.53
2018-06-29T04:41:47.104Z,14.71
2018-06-29T04:44:16.509Z,15.49
2018-06-29T04:46:45.919Z,15.43
2018-06-29T04:49:15.052Z,15.46
2018-06-29T04:51:44.426Z,15.52
2018-06-29T04:54:13.548Z,15.53
2018-06-29T04:56:42.949Z,15.62
2018-06-29T04:59:12.377Z,15.69
2018-06-29T05:01:41.756Z,15.65
2018-06-29T05:04:11.153Z,15.67
2018-06-29T05:06:40.531Z,15.59
2018-06-29T05:09:09.976Z,15.56
2018-06-29T05:11:39.654Z,15.68
2018-06-29T05:14:09.061Z,15.68
2018-06-29T05:16:38.462Z,15.68
2018-06-29T05:19:07.794Z,15.70
2018-06-29T05:21:37.104Z,15.74
2018-06-29T05:24:06.429Z,15.81
2018-06-29T05:26:35.742Z,15.73
2018-06-29T05:29:04.837Z,15.73
2018-06-29T05:31:33.908Z,15.82
2018-06-29T05:34:03.245Z,15.74
2018-06-29T05:36:32.565Z,15.83
2018-06-29T05:39:01.890Z,15.77
2018-06-29T05:41:31.429Z,15.84
2018-06-29T05:44:00.449Z,15.81
2018-06-29T05:46:29.773Z,15.91
2018-06-29T05:48:59.089Z,15.87
2018-06-29T05:51:28.412Z,15.94
2018-06-29T05:53:57.722Z,15.88
2018-06-29T05:56:27.034Z,15.45
2018-06-29T05:58:56.357Z,15.92
2018-06-29T06:01:25.701Z,16.00
2018-06-29T06:03:55.013Z,16.10
2018-06-29T06:06:24.337Z,16.14
2018-06-29T06:08:53.425Z,16.20
2018-06-29T06:11:22.750Z,16.09
2018-06-29T06:13:52.082Z,16.14
2018-06-29T06:16:21.406Z,16.14
2018-06-29T06:19:01.143Z,16.23
2018-06-29T06:21:30.469Z,16.24
2018-06-29T06:23:59.805Z,16.28
2018-06-29T06:26:29.166Z,16.28
2018-06-29T06:28:58.496Z,16.27
2018-06-29T06:31:27.844Z,16.29
2018-06-29T06:33:57.153Z,16.30
2018-06-29T06:36:26.476Z,16.33
2018-06-29T06:38:55.551Z,16.37
2018-06-29T06:41:24.872Z,16.39
2018-06-29T06:43:53.973Z,16.44
2018-06-29T06:46:23.121Z,16.45
2018-06-29T06:48:52.462Z,16.53
2018-06-29T06:51:21.811Z,16.48
2018-06-29T06:53:51.126Z,16.57
2018-06-29T06:56:20.458Z,16.59
2018-06-29T06:58:49.767Z,16.55
2018-06-29T07:01:18.860Z,16.63
2018-06-29T07:03:47.949Z,16.69
2018-06-29T07:06:17.290Z,16.74
2018-06-29T07:08:46.607Z,16.82
2018-06-29T07:11:15.932Z,16.76
2018-06-29T07:13:45.263Z,16.82
2018-06-29T07:16:14.596Z,16.93
2018-06-29T07:18:43.987Z,16.93
2018-06-29T07:21:13.384Z,17.04
2018-06-29T07:23:42.822Z,17.00
2018-06-29T07:26:12.188Z,17.00
2018-06-29T07:28:41.565Z,17.00
2018-06-29T07:31:10.681Z,17.06
2018-06-29T07:33:40.057Z,17.11
2018-06-29T07:36:09.451Z,17.04
2018-06-29T07:38:38.862Z,17.09
2018-06-29T07:41:08.197Z,17.10
2018-06-29T07:43:37.562Z,17.07
2018-06-29T07:46:08.215Z,16.97
2018-06-29T07:48:37.587Z,17.22
2018-06-29T07:51:07.368Z,17.26
2018-06-29T07:53:36.745Z,17.41
2018-06-29T07:56:06.915Z,17.40
2018-06-29T07:58:36.322Z,17.48
2018-06-29T08:01:05.672Z,17.52
2018-06-29T08:03:36.082Z,17.66
2018-06-29T08:06:05.504Z,17.67
2018-06-29T08:08:34.876Z,17.74
2018-06-29T08:11:03.980Z,17.89
2018-06-29T08:13:33.351Z,17.88
2018-06-29T08:16:02.713Z,17.85
2018-06-29T08:18:32.096Z,17.94
2018-06-29T08:21:01.470Z,18.01
2018-06-29T08:23:31.374Z,18.04
2018-06-29T08:26:17.600Z,18.08
2018-06-29T08:28:46.962Z,18.17
2018-06-29T08:31:16.337Z,18.25
2018-06-29T08:33:45.727Z,18.33
2018-06-29T08:36:15.105Z,18.44
2018-06-29T08:38:45.234Z,18.43
2018-06-29T08:41:14.530Z,18.50
2018-06-29T08:43:43.900Z,18.58
2018-06-29T08:46:13.275Z,18.59
2018-06-29T08:48:42.629Z,18.66
2018-06-29T08:51:12.024Z,18.71
2018-06-29T08:53:41.385Z,18.72
2018-06-29T08:56:10.741Z,18.65
2018-06-29T08:58:40.123Z,18.68
2018-06-29T09:01:09.230Z,18.79
2018-06-29T09:03:38.623Z,18.90
2018-06-29T09:06:08.987Z,18.87
2018-06-29T09:08:38.353Z,18.95
2018-06-29T09:11:07.753Z,19.19
2018-06-29T09:13:37.093Z,19.17
2018-06-29T09:16:06.488Z,19.24
2018-06-29T09:18:35.800Z,19.35
2018-06-29T09:21:05.102Z,19.39
2018-06-29T09:23:34.438Z,19.33
2018-06-29T09:26:03.747Z,19.45
2018-06-29T09:28:32.816Z,19.46
2018-06-29T09:31:02.118Z,19.46
2018-06-29T09:33:31.425Z,19.48
2018-06-29T09:36:00.765Z,19.49
2018-06-29T09:38:30.081Z,19.52
2018-06-29T09:40:59.386Z,19.63
2018-06-29T09:43:28.708Z,19.76
2018-06-29T09:45:57.996Z,19.89
2018-06-29T09:48:27.310Z,19.92
2018-06-29T09:50:56.603Z,20.00
2018-06-29T09:53:25.919Z,20.04
2018-06-29T09:55:55.241Z,20.13
2018-06-29T09:58:24.324Z,19.92
2018-06-29T10:00:55.412Z,20.11
2018-06-29T10:03:22.997Z,20.32
2018-06-29T10:05:52.289Z,20.43
2018-06-29T10:08:21.601Z,20.46
2018-06-29T10:10:50.921Z,20.45
2018-06-29T10:13:20.224Z,20.44
2018-06-29T10:15:49.534Z,20.58
2018-06-29T10:18:18.633Z,20.49
2018-06-29T10:20:47.700Z,20.77
2018-06-29T10:23:17.012Z,20.90
2018-06-29T10:25:46.329Z,20.76
2018-06-29T10:28:15.765Z,20.99
2018-06-29T10:30:45.075Z,21.05
2018-06-29T10:33:14.465Z,21.07
2018-06-29T10:35:43.780Z,21.05
2018-06-29T10:38:13.101Z,21.31
2018-06-29T10:40:42.404Z,21.33
2018-06-29T10:43:11.765Z,21.44
2018-06-29T10:45:41.087Z,21.45
2018-06-29T10:48:10.395Z,21.57
2018-06-29T10:50:39.713Z,21.67
2018-06-29T10:53:09.020Z,21.82
2018-06-29T10:55:38.337Z,22.06
2018-06-29T10:58:08.953Z,22.33
2018-06-29T11:00:38.282Z,22.52
2018-06-29T11:03:07.754Z,22.63
2018-06-29T11:05:37.201Z,22.81
2018-06-29T11:08:06.127Z,22.95
2018-06-29T11:10:35.442Z,22.93
2018-06-29T11:13:04.752Z,23.07
2018-06-29T11:15:34.065Z,23.17
2018-06-29T11:18:03.368Z,23.18
2018-06-29T11:20:32.771Z,23.28
2018-06-29T11:23:01.873Z,23.32
2018-06-29T11:25:31.257Z,23.39
2018-06-29T11:28:00.614Z,23.27
2018-06-29T11:30:29.981Z,23.25
2018-06-29T11:32:59.357Z,23.23
2018-06-29T11:35:28.738Z,22.51
2018-06-29T11:37:58.121Z,23.52
2018-06-29T11:40:27.504Z,23.55
2018-06-29T11:42:56.874Z,23.57
2018-06-29T11:45:26.249Z,23.74
2018-06-29T11:47:55.619Z,23.87
2018-06-29T11:50:24.990Z,23.84
2018-06-29T11:52:54.568Z,23.92
2018-06-29T11:55:23.961Z,23.84
2018-06-29T11:57:53.332Z,24.04
2018-06-29T12:00:22.833Z,24.16
2018-06-29T12:02:52.530Z,24.38
2018-06-29T12:05:21.829Z,24.44
2018-06-29T12:07:51.147Z,24.47
2018-06-29T12:10:20.464Z,24.75
2018-06-29T12:12:49.787Z,24.94
2018-06-29T12:15:19.102Z,25.11
2018-06-29T12:17:48.441Z,25.08
2018-06-29T12:20:17.816Z,25.31
2018-06-29T12:22:47.186Z,25.37
2018-06-29T12:25:16.549Z,24.98
2018-06-29T12:27:45.921Z,25.16
2018-06-29T12:30:15.295Z,25.18
2018-06-29T12:32:44.668Z,25.46
2018-06-29T12:35:14.017Z,25.65
2018-06-29T12:37:43.409Z,25.61
2018-06-29T12:40:12.800Z,25.43
2018-06-29T12:42:42.181Z,25.33
2018-06-29T12:45:11.582Z,25.31
2018-06-29T12:47:40.949Z,25.16
2018-06-29T12:50:10.310Z,25.05
2018-06-29T12:52:39.686Z,25.10
2018-06-29T12:55:09.041Z,25.25
2018-06-29T12:57:38.416Z,25.07
2018-06-29T13:00:09.162Z,25.06
2018-06-29T13:02:38.285Z,24.95
2018-06-29T13:05:07.686Z,24.98
2018-06-29T13:07:37.106Z,24.99
2018-06-29T13:10:06.469Z,24.92
2018-06-29T13:12:35.576Z,24.22
2018-06-29T13:15:04.964Z,25.00
2018-06-29T13:17:34.341Z,24.99
2018-06-29T13:20:03.749Z,25.00
2018-06-29T13:22:33.106Z,25.02
2018-06-29T13:25:02.590Z,25.05
2018-06-29T13:27:31.599Z,25.00
2018-06-29T13:30:00.950Z,24.23
2018-06-29T13:32:30.342Z,24.72
2018-06-29T13:34:59.699Z,24.80
2018-06-29T13:37:29.057Z,24.75
2018-06-29T13:39:58.429Z,24.74
2018-06-29T13:42:27.821Z,24.72
2018-06-29T13:44:57.214Z,24.63
2018-06-29T13:47:26.593Z,24.71
2018-06-29T13:49:55.994Z,24.86
2018-06-29T13:52:25.349Z,24.98
2018-06-29T13:54:54.853Z,24.92
2018-06-29T13:57:24.165Z,24.95
2018-06-29T13:59:53.570Z,24.89
2018-06-29T14:02:22.933Z,25.01
2018-06-29T14:04:52.282Z,25.15
2018-06-29T14:07:21.408Z,25.18
2018-06-29T14:09:50.786Z,25.30
2018-06-29T14:12:19.891Z,25.32
2018-06-29T14:14:49.282Z,25.37
2018-06-29T14:17:18.386Z,25.47
2018-06-29T14:19:47.786Z,25.55
2018-06-29T14:22:17.163Z,26.06
2018-06-29T14:24:46.574Z,25.81
2018-06-29T14:27:15.910Z,25.76
2018-06-29T14:29:45.296Z,26.00
2018-06-29T14:32:14.676Z,25.96
2018-06-29T14:34:43.792Z,27.04
2018-06-29T14:37:13.169Z,27.73
2018-06-29T14:39:42.561Z,27.38
2018-06-29T14:42:11.934Z,28.50
2018-06-29T14:44:41.312Z,28.86
2018-06-29T14:47:11.054Z,29.12
2018-06-29T14:49:40.953Z,29.47
2018-06-29T14:52:10.309Z,29.57
2018-06-29T14:54:40.426Z,29.21
2018-06-29T14:57:09.917Z,28.59
2018-06-29T14:59:39.749Z,27.98
2018-06-29T15:02:09.693Z,28.46
2018-06-29T15:04:39.226Z,28.37
2018-06-29T15:07:08.670Z,28.87
2018-06-29T15:09:37.861Z,28.99
2018-06-29T15:12:07.486Z,29.34
2018-06-29T15:14:36.917Z,29.58
2018-06-29T15:17:06.331Z,29.68
2018-06-29T15:19:36.020Z,29.54
2018-06-29T15:22:05.414Z,29.60
2018-06-29T15:24:34.832Z,29.07
2018-06-29T15:27:04.186Z,29.22
2018-06-29T15:29:33.306Z,29.58
2018-06-29T15:32:02.693Z,29.69
2018-06-29T15:34:31.830Z,29.84
2018-06-29T15:37:01.678Z,29.23
2018-06-29T15:39:31.069Z,28.84
2018-06-29T15:42:00.460Z,28.85
2018-06-29T15:44:29.846Z,28.36
2018-06-29T15:46:59.254Z,28.11
2018-06-29T15:49:28.624Z,28.04
2018-06-29T15:51:58.004Z,27.81
2018-06-29T15:54:27.393Z,27.53
2018-06-29T15:56:56.791Z,27.38
2018-06-29T15:59:26.352Z,27.54
2018-06-29T16:01:55.727Z,27.58
2018-06-29T16:04:24.843Z,27.79
2018-06-29T16:06:55.117Z,27.76
2018-06-29T16:09:24.377Z,27.75
2018-06-29T16:11:53.758Z,27.75
2018-06-29T16:14:23.132Z,27.60
2018-06-29T16:16:52.520Z,27.44
2018-06-29T16:19:21.894Z,27.34
2018-06-29T16:21:51.273Z,27.27
2018-06-29T16:24:20.673Z,27.33
2018-06-29T16:26:50.147Z,27.17
2018-06-29T16:29:19.898Z,27.12
2018-06-29T16:31:49.308Z,27.02
2018-06-29T16:34:19.129Z,27.09
2018-06-29T16:36:48.500Z,27.02
2018-06-29T16:39:17.853Z,26.98
2018-06-29T16:41:47.261Z,26.80
2018-06-29T16:44:16.644Z,26.83
2018-06-29T16:46:46.030Z,26.86
2018-06-29T16:49:15.821Z,26.80
2018-06-29T16:51:45.640Z,26.78
2018-06-29T16:54:15.013Z,26.74
2018-06-29T16:56:44.149Z,26.70
2018-06-29T16:59:13.519Z,26.61
2018-06-29T17:01:42.901Z,26.52
2018-06-29T17:04:12.624Z,26.54
2018-06-29T17:06:42.042Z,26.50
2018-06-29T17:09:11.430Z,26.49
2018-06-29T17:11:40.916Z,26.55
2018-06-29T17:14:10.028Z,26.21
2018-06-29T17:16:39.402Z,26.44
2018-06-29T17:19:09.429Z,26.53
2018-06-29T17:21:39.866Z,26.49
2018-06-29T17:24:10.673Z,26.45
2018-06-29T17:26:40.057Z,26.35
2018-06-29T17:29:09.831Z,26.36
2018-06-29T17:31:39.201Z,26.36
2018-06-29T17:34:09.398Z,26.23
2018-06-29T17:36:38.738Z,26.21
2018-06-29T17:39:10.599Z,26.05
2018-06-29T17:41:40.207Z,25.91
2018-06-29T17:44:10.009Z,25.93
2018-06-29T17:46:39.123Z,25.57
2018-06-29T17:49:09.371Z,25.82
2018-06-29T17:51:38.736Z,25.78
2018-06-29T17:54:09.102Z,25.76
2018-06-29T17:56:38.537Z,25.71
2018-06-29T17:59:07.920Z,25.61
2018-06-29T18:01:37.306Z,25.56
2018-06-29T18:04:06.991Z,25.53
2018-06-29T18:06:36.967Z,25.24
2018-06-29T18:09:09.253Z,25.28
2018-06-29T18:11:38.377Z,25.47
2018-06-29T18:14:07.978Z,25.53
2018-06-29T18:16:37.397Z,25.53
2018-06-29T18:19:06.819Z,25.47
2018-06-29T18:21:36.446Z,25.49
2018-06-29T18:24:06.202Z,25.38
2018-06-29T18:26:36.783Z,25.33
2018-06-29T18:29:06.747Z,25.40
2018-06-29T18:31:36.129Z,25.29
2018-06-29T18:34:05.687Z,25.31
2018-06-29T18:36:35.153Z,25.15
2018-06-29T18:39:06.173Z,25.09
2018-06-29T18:41:35.279Z,25.06
2018-06-29T18:44:04.391Z,24.86
2018-06-29T18:46:33.754Z,24.91
2018-06-29T18:49:03.188Z,24.60
2018-06-29T18:51:32.529Z,24.69
2018-06-29T18:54:01.917Z,24.62
2018-06-29T18:56:31.284Z,24.50
2018-06-29T18:59:00.408Z,24.43
2018-06-29T19:01:29.852Z,24.32
2018-06-29T19:03:59.276Z,24.19
2018-06-29T19:06:28.685Z,23.88
2018-06-29T19:08:57.792Z,23.70
2018-06-29T19:11:27.176Z,23.27
2018-06-29T19:13:56.516Z,23.07
2018-06-29T19:16:25.902Z,22.77
2018-06-29T19:18:55.285Z,22.51
2018-06-29T19:21:24.409Z,22.30
2018-06-29T19:23:53.795Z,22.15
2018-06-29T19:26:23.459Z,21.96
2018-06-29T19:28:53.149Z,21.77
2018-06-29T19:31:22.590Z,21.57
2018-06-29T19:33:51.896Z,21.46
2018-06-29T19:36:21.414Z,21.32
2018-06-29T19:38:50.568Z,21.25
2018-06-29T19:41:19.913Z,21.09
2018-06-29T19:43:49.003Z,20.92
2018-06-29T19:46:18.133Z,20.80
2018-06-29T19:48:47.553Z,20.71
2018-06-29T19:51:16.958Z,20.66
2018-06-29T19:53:46.328Z,20.56
2018-06-29T19:56:15.692Z,20.48
2018-06-29T19:58:45.085Z,20.93
2018-06-29T20:01:14.455Z,20.27
2018-06-29T20:03:43.821Z,20.20
2018-06-29T20:06:13.201Z,20.07
2018-06-29T20:08:42.574Z,20.08
2018-06-29T20:11:12.137Z,20.02
2018-06-29T20:13:42.128Z,19.95
2018-06-29T20:16:11.929Z,19.86
2018-06-29T20:18:41.261Z,19.40
2018-06-29T20:21:10.594Z,19.62
2018-06-29T20:23:39.927Z,19.54
2018-06-29T20:26:09.256Z,19.48
2018-06-29T20:28:39.076Z,19.46
2018-06-29T20:31:08.434Z,19.40
2018-06-29T20:33:37.744Z,19.35
2018-06-29T20:36:07.071Z,19.26
2018-06-29T20:38:36.447Z,19.17
2018-06-29T20:41:05.766Z,19.00
2018-06-29T20:43:35.079Z,18.99
2018-06-29T20:46:04.398Z,18.80
2018-06-29T20:48:33.775Z,18.64
2018-06-29T20:51:03.062Z,18.76
2018-06-29T20:53:32.131Z,18.61
2018-06-29T20:56:01.457Z,18.60
2018-06-29T20:58:30.768Z,18.51
2018-06-29T21:01:00.092Z,18.43
2018-06-29T21:03:29.398Z,18.28
2018-06-29T21:05:58.730Z,18.17
2018-06-29T21:08:28.032Z,18.17
2018-06-29T21:10:57.376Z,18.05
2018-06-29T21:13:26.675Z,18.03
2018-06-29T21:15:56.007Z,17.93
2018-06-29T21:18:25.336Z,17.92
2018-06-29T21:20:54.642Z,17.94
2018-06-29T21:23:23.957Z,17.63
2018-06-29T21:25:53.265Z,17.82
2018-06-29T21:28:22.578Z,17.77
2018-06-29T21:30:51.895Z,17.68
2018-06-29T21:33:21.212Z,17.64
2018-06-29T21:35:50.525Z,17.50
2018-06-29T21:38:19.840Z,17.48
2018-06-29T21:40:49.310Z,17.39
2018-06-29T21:43:18.609Z,17.34
2018-06-29T21:45:47.925Z,17.16
2018-06-29T21:48:17.255Z,17.08
2018-06-29T21:50:46.566Z,16.72
2018-06-29T21:53:15.643Z,17.04
2018-06-29T21:55:44.949Z,16.80
2018-06-29T21:58:14.283Z,16.29
2018-06-29T22:00:45.540Z,16.90
2018-06-29T22:03:14.871Z,16.77
2018-06-29T22:05:44.277Z,16.83
2018-06-29T22:08:13.610Z,16.75
2018-06-29T22:10:42.925Z,16.76
2018-06-29T22:13:12.280Z,16.88
2018-06-29T22:15:41.552Z,16.82
2018-06-29T22:18:10.902Z,16.82
2018-06-29T22:20:40.226Z,16.79
2018-06-29T22:23:09.555Z,16.69
2018-06-29T22:25:38.886Z,16.03
2018-06-29T22:28:09.270Z,16.63
2018-06-29T22:30:38.578Z,16.54
2018-06-29T22:33:07.972Z,16.55
2018-06-29T22:35:37.298Z,16.42
2018-06-29T22:38:06.625Z,16.42
2018-06-29T22:40:35.929Z,16.19
2018-06-29T22:43:05.361Z,16.76
2018-06-29T22:45:34.733Z,16.08
2018-06-29T22:48:04.125Z,16.64
2018-06-29T22:50:33.492Z,15.91
2018-06-29T22:53:02.880Z,15.90
2018-06-29T22:55:32.246Z,15.33
2018-06-29T22:58:01.349Z,15.97
2018-06-29T23:00:30.496Z,15.91
2018-06-29T23:03:07.433Z,15.93
2018-06-29T23:05:36.878Z,15.88
2018-06-29T23:08:07.376Z,15.87
2018-06-29T23:10:36.757Z,15.80
2018-06-29T23:13:06.442Z,15.83
2018-06-29T23:15:35.814Z,15.73
2018-06-29T23:18:05.273Z,15.74
2018-06-29T23:20:34.397Z,15.66
2018-06-29T23:23:03.771Z,15.66
2018-06-29T23:25:33.157Z,15.59
2018-06-29T23:28:02.531Z,15.44
2018-06-29T23:30:31.917Z,15.37
2018-06-29T23:33:01.281Z,15.33
2018-06-29T23:35:30.670Z,15.18
2018-06-29T23:37:59.784Z,15.06
2018-06-29T23:40:29.168Z,15.04
2018-06-29T23:42:58.278Z,14.51
2018-06-29T23:45:27.738Z,15.33
2018-06-29T23:47:57.089Z,15.23
2018-06-29T23:50:26.460Z,15.32
2018-06-29T23:52:55.568Z,15.31
2018-06-29T23:55:24.699Z,15.32
2018-06-29T23:57:54.093Z,14.99
